createdAt,value
2024-02-16T00:01:56.678Z,1.90
2024-02-16T00:04:50.682Z,1.80
2024-02-16T00:07:45.024Z,1.80
2024-02-16T00:10:41.740Z,1.80
2024-02-16T00:13:35.342Z,1.80
2024-02-16T00:16:28.986Z,1.76
2024-02-16T00:19:23.542Z,1.80
2024-02-16T00:22:17.762Z,1.76
2024-02-16T00:25:14.036Z,1.70
2024-02-16T00:28:08.636Z,1.70
2024-02-16T00:31:01.858Z,1.70
2024-02-16T00:33:55.428Z,1.70
2024-02-16T00:36:49.120Z,1.66
2024-02-16T00:39:43.246Z,1.60
2024-02-16T00:42:37.408Z,1.60
2024-02-16T00:45:31.050Z,1.60
2024-02-16T00:48:25.593Z,1.60
2024-02-16T00:51:19.948Z,1.60
2024-02-16T00:54:14.081Z,1.54
2024-02-16T00:57:08.197Z,1.50
2024-02-16T01:00:01.616Z,1.50
2024-02-16T01:02:56.114Z,1.50
2024-02-16T01:05:49.953Z,1.50
2024-02-16T01:08:43.967Z,1.50
2024-02-16T01:11:37.661Z,1.50
2024-02-16T01:14:31.378Z,1.50
2024-02-16T01:17:24.930Z,1.50
2024-02-16T01:20:19.179Z,1.50
2024-02-16T01:23:12.885Z,1.40
2024-02-16T01:26:07.273Z,1.40
2024-02-16T01:29:00.786Z,1.40
2024-02-16T01:31:54.342Z,1.40
2024-02-16T01:34:50.993Z,1.34
2024-02-16T01:37:45.082Z,1.36
2024-02-16T01:40:38.411Z,1.30
2024-02-16T01:43:32.716Z,1.30
2024-02-16T01:46:27.505Z,1.30
2024-02-16T01:49:21.421Z,1.30
2024-02-16T01:52:15.538Z,1.30
2024-02-16T01:55:11.563Z,1.30
2024-02-16T01:58:06.778Z,1.30
2024-02-16T02:01:00.281Z,1.24
2024-02-16T02:03:53.867Z,1.24
2024-02-16T02:06:47.447Z,1.20
2024-02-16T02:09:41.164Z,1.20
2024-02-16T02:12:35.401Z,1.20
2024-02-16T02:15:29.288Z,1.10
2024-02-16T02:18:23.634Z,1.10
2024-02-16T02:21:19.288Z,1.08
2024-02-16T02:24:13.329Z,1.00
2024-02-16T02:27:07.576Z,1.00
2024-02-16T02:30:01.337Z,1.00
2024-02-16T02:32:55.670Z,1.00
2024-02-16T02:35:49.987Z,0.90
2024-02-16T02:38:45.766Z,0.90
2024-02-16T02:41:39.752Z,0.80
2024-02-16T02:44:33.743Z,0.80
2024-02-16T02:47:27.559Z,0.78
2024-02-16T02:50:22.000Z,0.70
2024-02-16T02:53:15.596Z,0.62
2024-02-16T02:56:10.727Z,0.60
2024-02-16T02:59:05.823Z,0.60
2024-02-16T03:01:59.519Z,0.60
2024-02-16T03:04:53.191Z,0.60
2024-02-16T03:07:47.008Z,0.60
2024-02-16T03:10:40.598Z,0.60
2024-02-16T03:13:35.588Z,0.58
2024-02-16T03:16:30.090Z,0.50
2024-02-16T03:19:24.049Z,0.50
2024-02-16T03:22:17.846Z,0.50
2024-02-16T03:25:12.702Z,0.50
2024-02-16T03:28:07.116Z,0.50
2024-02-16T03:31:00.853Z,0.50
2024-02-16T03:33:55.701Z,0.50
2024-02-16T03:36:49.818Z,0.42
2024-02-16T03:39:43.450Z,0.40
2024-02-16T03:42:37.708Z,0.40
2024-02-16T03:45:31.360Z,0.40
2024-02-16T03:48:25.553Z,0.40
2024-02-16T03:51:19.196Z,0.40
2024-02-16T03:54:12.829Z,0.36
2024-02-16T03:57:10.446Z,0.38
2024-02-16T04:00:06.966Z,0.30
2024-02-16T04:03:06.190Z,0.30
2024-02-16T04:06:00.979Z,0.30
2024-02-16T04:08:55.025Z,0.30
2024-02-16T04:11:50.780Z,0.30
2024-02-16T04:14:46.133Z,0.30
2024-02-16T04:17:40.370Z,0.26
2024-02-16T04:20:34.902Z,0.20
2024-02-16T04:23:28.440Z,0.24
2024-02-16T04:26:22.411Z,0.20
2024-02-16T04:29:16.120Z,0.20
2024-02-16T04:32:11.296Z,0.20
2024-02-16T04:35:05.568Z,0.20
2024-02-16T04:37:59.434Z,0.26
2024-02-16T04:40:53.562Z,0.28
2024-02-16T04:43:47.154Z,0.30
2024-02-16T04:46:41.016Z,0.30
2024-02-16T04:49:35.170Z,0.30
2024-02-16T04:52:30.980Z,0.32
2024-02-16T04:55:25.256Z,0.34
2024-02-16T04:58:18.733Z,0.32
2024-02-16T05:01:12.495Z,0.40
2024-02-16T05:04:08.017Z,0.40
2024-02-16T05:07:01.922Z,0.30
2024-02-16T05:09:59.732Z,0.30
2024-02-16T05:12:53.679Z,0.30
2024-02-16T05:15:48.854Z,0.30
2024-02-16T05:18:42.696Z,0.30
2024-02-16T05:21:36.620Z,0.30
2024-02-16T05:24:30.204Z,0.30
2024-02-16T05:27:23.976Z,0.30
2024-02-16T05:30:18.488Z,0.30
2024-02-16T05:33:12.054Z,0.30
2024-02-16T05:36:06.246Z,0.30
2024-02-16T05:39:11.031Z,0.20
2024-02-16T05:42:05.464Z,0.20
2024-02-16T05:44:59.416Z,0.20
2024-02-16T05:47:53.982Z,0.20
2024-02-16T05:50:49.134Z,0.22
2024-02-16T05:53:42.940Z,0.30
2024-02-16T05:56:38.301Z,0.30
2024-02-16T05:59:32.099Z,0.30
2024-02-16T06:02:27.140Z,0.30
2024-02-16T06:05:21.847Z,0.40
2024-02-16T06:08:16.705Z,0.40
2024-02-16T06:11:14.066Z,0.50
2024-02-16T06:14:07.741Z,0.50
2024-02-16T06:17:01.521Z,0.54
2024-02-16T06:19:55.288Z,0.60
2024-02-16T06:22:49.374Z,0.64
2024-02-16T06:25:43.316Z,0.70
2024-02-16T06:28:37.131Z,0.80
2024-02-16T06:31:31.476Z,0.82
2024-02-16T06:34:25.140Z,0.90
2024-02-16T06:37:18.910Z,1.00
2024-02-16T06:40:14.520Z,1.10
2024-02-16T06:43:08.384Z,1.22
2024-02-16T06:46:01.735Z,1.36
2024-02-16T06:48:57.865Z,1.50
2024-02-16T06:51:51.789Z,1.60
2024-02-16T06:54:45.558Z,1.80
2024-02-16T06:57:38.921Z,1.90
2024-02-16T07:00:33.101Z,2.10
2024-02-16T07:03:26.904Z,2.30
2024-02-16T07:06:20.548Z,2.44
2024-02-16T07:09:15.710Z,2.60
2024-02-16T07:12:13.822Z,2.80
2024-02-16T07:15:09.864Z,3.00
2024-02-16T07:18:05.568Z,3.18
2024-02-16T07:21:00.258Z,3.30
2024-02-16T07:23:54.650Z,3.50
2024-02-16T07:26:48.329Z,3.70
2024-02-16T07:29:41.992Z,3.90
2024-02-16T07:32:35.840Z,4.20
2024-02-16T07:35:29.525Z,4.58
2024-02-16T07:38:24.344Z,4.90
2024-02-16T07:41:18.179Z,5.20
2024-02-16T07:44:12.399Z,5.60
2024-02-16T07:47:06.308Z,6.04
2024-02-16T07:49:59.896Z,6.46
2024-02-16T07:52:54.722Z,6.80
2024-02-16T07:55:48.680Z,7.10
2024-02-16T07:58:43.238Z,7.40
2024-02-16T08:01:36.776Z,7.70
2024-02-16T08:04:30.611Z,8.02
2024-02-16T08:07:24.207Z,8.30
2024-02-16T08:10:22.037Z,8.30
2024-02-16T08:13:15.569Z,8.40
2024-02-16T08:16:10.091Z,8.60
2024-02-16T08:19:04.053Z,8.80
2024-02-16T08:21:57.725Z,9.00
2024-02-16T08:24:51.485Z,9.10
2024-02-16T08:27:44.980Z,9.30
2024-02-16T08:30:42.337Z,9.50
2024-02-16T08:33:38.478Z,9.58
2024-02-16T08:36:32.373Z,9.50
2024-02-16T08:39:26.673Z,9.50
2024-02-16T08:42:20.490Z,9.46
2024-02-16T08:45:14.721Z,9.40
2024-02-16T08:48:09.737Z,9.40
2024-02-16T08:51:03.708Z,9.60
2024-02-16T08:53:57.665Z,9.64
2024-02-16T08:56:52.000Z,9.80
2024-02-16T08:59:46.885Z,9.90
2024-02-16T09:02:40.182Z,10.10
2024-02-16T09:05:34.378Z,10.20
2024-02-16T09:08:30.259Z,10.36
2024-02-16T09:11:24.559Z,10.40
2024-02-16T09:14:17.850Z,10.38
2024-02-16T09:17:11.640Z,10.30
2024-02-16T09:20:09.710Z,10.40
2024-02-16T09:23:04.838Z,10.40
2024-02-16T09:25:58.505Z,10.40
2024-02-16T09:28:52.460Z,10.50
2024-02-16T09:31:45.930Z,10.60
2024-02-16T09:34:41.691Z,10.70
2024-02-16T09:37:36.917Z,10.70
2024-02-16T09:40:30.821Z,10.62
2024-02-16T09:43:32.345Z,10.70
2024-02-16T09:46:27.565Z,10.70
2024-02-16T09:49:28.964Z,10.70
2024-02-16T09:52:29.342Z,10.70
2024-02-16T09:55:23.552Z,10.70
2024-02-16T09:58:18.801Z,10.70
2024-02-16T10:01:22.728Z,10.70
2024-02-16T10:04:16.924Z,10.70
2024-02-16T10:07:13.108Z,10.74
2024-02-16T10:10:16.837Z,10.80
2024-02-16T10:13:12.825Z,10.74
2024-02-16T10:16:15.210Z,10.80
2024-02-16T10:19:14.578Z,10.80
2024-02-16T10:22:15.161Z,10.82
2024-02-16T10:25:15.528Z,10.80
2024-02-16T10:28:12.641Z,10.90
2024-02-16T10:31:06.761Z,10.90
2024-02-16T10:34:07.009Z,11.00
2024-02-16T10:37:03.644Z,11.08
2024-02-16T10:39:59.158Z,11.10
2024-02-16T10:42:55.163Z,11.12
2024-02-16T10:45:53.815Z,11.20
2024-02-16T10:48:47.712Z,11.30
2024-02-16T10:51:47.418Z,11.30
2024-02-16T10:54:43.138Z,11.40
2024-02-16T10:57:41.173Z,11.50
2024-02-16T11:00:36.005Z,11.60
2024-02-16T11:03:30.942Z,11.68
2024-02-16T11:06:26.312Z,11.70
2024-02-16T11:09:32.277Z,11.80
2024-02-16T11:12:26.985Z,11.90
2024-02-16T11:15:29.424Z,12.00
2024-02-16T11:18:23.493Z,12.00
2024-02-16T11:21:20.295Z,12.10
2024-02-16T11:24:17.537Z,12.10
2024-02-16T11:27:12.347Z,12.20
2024-02-16T11:30:09.032Z,12.20
2024-02-16T11:33:02.463Z,12.30
2024-02-16T11:36:02.110Z,12.30
2024-02-16T11:38:56.262Z,12.30
2024-02-16T11:41:49.931Z,12.40
2024-02-16T11:44:52.741Z,12.40
2024-02-16T11:47:47.033Z,12.50
2024-02-16T11:50:40.914Z,12.60
2024-02-16T11:53:35.527Z,12.60
2024-02-16T11:56:31.139Z,12.70
2024-02-16T11:59:26.429Z,12.70
2024-02-16T12:02:26.834Z,12.74
2024-02-16T12:05:20.942Z,12.80
2024-02-16T12:08:14.745Z,12.90
2024-02-16T12:11:09.927Z,12.90
2024-02-16T12:14:03.782Z,13.00
2024-02-16T12:17:01.266Z,13.00
2024-02-16T12:19:56.697Z,13.10
2024-02-16T12:22:50.634Z,13.10
2024-02-16T12:25:44.182Z,13.10
2024-02-16T12:28:38.528Z,13.10
2024-02-16T12:31:33.854Z,13.18
2024-02-16T12:34:27.843Z,13.20
2024-02-16T12:37:21.610Z,13.20
2024-02-16T12:40:16.076Z,13.22
2024-02-16T12:43:12.381Z,13.30
2024-02-16T12:46:06.202Z,13.30
2024-02-16T12:48:59.888Z,13.30
2024-02-16T12:51:53.629Z,13.30
2024-02-16T12:54:48.000Z,13.30
2024-02-16T12:57:41.989Z,13.30
2024-02-16T13:00:35.906Z,13.30
2024-02-16T13:03:29.507Z,13.40
2024-02-16T13:06:26.845Z,13.40
2024-02-16T13:09:22.467Z,13.40
2024-02-16T13:12:17.464Z,13.40
2024-02-16T13:15:23.028Z,13.40
2024-02-16T13:18:22.156Z,13.40
2024-02-16T13:21:21.444Z,13.40
2024-02-16T13:24:14.881Z,13.40
2024-02-16T13:27:10.071Z,13.40
2024-02-16T13:30:03.928Z,13.46
2024-02-16T13:32:57.517Z,13.50
2024-02-16T13:35:51.469Z,13.50
2024-02-16T13:38:45.476Z,13.50
2024-02-16T13:41:39.538Z,13.56
2024-02-16T13:44:33.130Z,13.60
2024-02-16T13:47:27.818Z,13.60
2024-02-16T13:50:21.717Z,13.60
2024-02-16T13:53:18.640Z,13.60
2024-02-16T13:56:15.234Z,13.60
2024-02-16T13:59:09.310Z,13.60
2024-02-16T14:02:03.563Z,13.60
2024-02-16T14:04:57.829Z,13.60
2024-02-16T14:07:58.208Z,13.60
2024-02-16T14:10:54.567Z,13.68
2024-02-16T14:13:48.390Z,13.70
2024-02-16T14:16:42.478Z,13.70
2024-02-16T14:19:38.936Z,13.70
2024-02-16T14:22:32.569Z,13.70
2024-02-16T14:25:27.002Z,13.70
2024-02-16T14:28:20.264Z,13.70
2024-02-16T14:31:15.410Z,13.70
2024-02-16T14:34:10.327Z,13.70
2024-02-16T14:37:05.522Z,13.70
2024-02-16T14:40:00.444Z,13.70
2024-02-16T14:42:54.028Z,13.60
2024-02-16T14:45:47.604Z,13.60
2024-02-16T14:48:41.984Z,13.50
2024-02-16T14:51:35.457Z,13.50
2024-02-16T14:54:29.107Z,13.40
2024-02-16T14:57:26.200Z,13.40
2024-02-16T15:00:21.915Z,13.30
2024-02-16T15:03:15.687Z,13.30
2024-02-16T15:06:09.971Z,13.20
2024-02-16T15:09:04.582Z,13.20
2024-02-16T15:11:58.406Z,13.10
2024-02-16T15:14:52.205Z,13.10
2024-02-16T15:17:45.680Z,13.00
2024-02-16T15:20:40.044Z,13.00
2024-02-16T15:23:34.496Z,13.00
2024-02-16T15:26:27.734Z,13.00
2024-02-16T15:29:21.396Z,12.90
2024-02-16T15:32:14.973Z,12.80
2024-02-16T15:35:09.401Z,12.72
2024-02-16T15:38:04.347Z,12.64
2024-02-16T15:40:57.817Z,12.60
2024-02-16T15:43:51.548Z,12.50
2024-02-16T15:46:45.656Z,12.40
2024-02-16T15:49:39.560Z,12.28
2024-02-16T15:52:33.239Z,12.20
2024-02-16T15:55:26.781Z,12.02
2024-02-16T15:58:20.312Z,11.90
2024-02-16T16:01:14.021Z,11.80
2024-02-16T16:04:08.280Z,11.70
2024-02-16T16:07:02.060Z,11.52
2024-02-16T16:09:58.920Z,11.40
2024-02-16T16:12:52.380Z,11.30
2024-02-16T16:15:47.357Z,11.14
2024-02-16T16:18:41.191Z,11.00
2024-02-16T16:21:34.751Z,10.90
2024-02-16T16:24:28.647Z,10.74
2024-02-16T16:27:23.804Z,10.60
2024-02-16T16:30:20.202Z,10.50
2024-02-16T16:33:14.134Z,10.38
2024-02-16T16:36:14.667Z,10.20
2024-02-16T16:39:08.607Z,10.10
2024-02-16T16:42:02.897Z,10.00
2024-02-16T16:44:57.186Z,9.82
2024-02-16T16:47:50.842Z,9.70
2024-02-16T16:50:44.953Z,9.50
2024-02-16T16:53:38.949Z,9.40
2024-02-16T16:56:32.954Z,9.20
2024-02-16T16:59:26.342Z,9.10
2024-02-16T17:02:19.571Z,9.00
2024-02-16T17:05:13.688Z,8.90
2024-02-16T17:08:09.154Z,8.80
2024-02-16T17:11:06.415Z,8.70
2024-02-16T17:14:00.858Z,8.60
2024-02-16T17:16:55.056Z,8.60
2024-02-16T17:19:49.314Z,8.50
2024-02-16T17:22:43.077Z,8.50
2024-02-16T17:25:37.988Z,8.42
2024-02-16T17:28:34.065Z,8.40
2024-02-16T17:31:28.374Z,8.32
2024-02-16T17:34:22.293Z,8.30
2024-02-16T17:37:16.410Z,8.30
2024-02-16T17:40:16.698Z,8.20
2024-02-16T17:43:10.440Z,8.10
2024-02-16T17:46:05.438Z,8.10
2024-02-16T17:48:59.039Z,8.08
2024-02-16T17:51:54.065Z,8.00
2024-02-16T17:54:47.676Z,7.90
2024-02-16T17:57:42.602Z,7.90
2024-02-16T18:00:37.114Z,7.88
2024-02-16T18:03:31.153Z,7.80
2024-02-16T18:06:24.993Z,7.70
2024-02-16T18:09:18.455Z,7.64
2024-02-16T18:12:15.941Z,7.60
2024-02-16T18:15:14.006Z,7.52
2024-02-16T18:18:08.611Z,7.50
2024-02-16T18:21:02.558Z,7.40
2024-02-16T18:23:56.897Z,7.34
2024-02-16T18:26:53.171Z,7.30
2024-02-16T18:29:46.999Z,7.20
2024-02-16T18:32:40.837Z,7.10
2024-02-16T18:35:35.437Z,7.02
2024-02-16T18:38:29.383Z,7.00
2024-02-16T18:41:23.020Z,6.90
2024-02-16T18:44:18.223Z,6.80
2024-02-16T18:47:18.009Z,6.78
2024-02-16T18:50:14.630Z,6.70
2024-02-16T18:53:09.560Z,6.60
2024-02-16T18:56:04.679Z,6.50
2024-02-16T18:58:59.109Z,6.46
2024-02-16T19:01:54.789Z,6.40
2024-02-16T19:04:48.989Z,6.30
2024-02-16T19:07:43.259Z,6.20
2024-02-16T19:10:38.938Z,6.10
2024-02-16T19:13:33.325Z,6.00
2024-02-16T19:16:28.105Z,6.00
2024-02-16T19:19:22.098Z,5.90
2024-02-16T19:22:15.996Z,5.80
2024-02-16T19:25:12.124Z,5.80
2024-02-16T19:28:06.332Z,5.70
2024-02-16T19:31:00.347Z,5.60
2024-02-16T19:33:55.570Z,5.58
2024-02-16T19:36:54.195Z,5.50
2024-02-16T19:39:48.308Z,5.40
2024-02-16T19:42:42.463Z,5.36
2024-02-16T19:45:36.327Z,5.30
2024-02-16T19:48:34.018Z,5.20
2024-02-16T19:51:28.769Z,5.10
2024-02-16T19:54:23.319Z,5.10
2024-02-16T19:57:23.072Z,5.00
2024-02-16T20:00:20.323Z,4.90
2024-02-16T20:03:14.437Z,4.88
2024-02-16T20:06:09.626Z,4.80
2024-02-16T20:09:08.701Z,4.76
2024-02-16T20:12:08.644Z,4.70
2024-02-16T20:15:02.686Z,4.60
2024-02-16T20:17:57.845Z,4.60
2024-02-16T20:20:52.334Z,4.50
2024-02-16T20:23:47.729Z,4.50
2024-02-16T20:26:42.080Z,4.40
2024-02-16T20:29:35.831Z,4.40
2024-02-16T20:32:32.847Z,4.32
2024-02-16T20:35:27.023Z,4.30
2024-02-16T20:38:20.856Z,4.30
2024-02-16T20:41:14.759Z,4.30
2024-02-16T20:44:09.225Z,4.20
2024-02-16T20:47:03.732Z,4.20
2024-02-16T20:49:58.099Z,4.20
2024-02-16T20:52:52.417Z,4.10
2024-02-16T20:55:46.211Z,4.10
2024-02-16T20:58:41.543Z,4.10
2024-02-16T21:01:36.378Z,4.00
2024-02-16T21:04:37.919Z,4.00
2024-02-16T21:07:32.149Z,3.96
2024-02-16T21:10:26.539Z,3.90
2024-02-16T21:13:21.765Z,3.90
2024-02-16T21:16:15.639Z,3.84
2024-02-16T21:19:10.254Z,3.80
2024-02-16T21:22:04.142Z,3.72
2024-02-16T21:24:58.309Z,3.70
2024-02-16T21:27:52.292Z,3.70
2024-02-16T21:30:46.249Z,3.60
2024-02-16T21:33:40.209Z,3.60
2024-02-16T21:36:34.221Z,3.60
2024-02-16T21:39:28.627Z,3.60
2024-02-16T21:42:23.391Z,3.50
2024-02-16T21:45:19.931Z,3.50
2024-02-16T21:48:22.398Z,3.50
2024-02-16T21:51:20.017Z,3.40
2024-02-16T21:54:14.307Z,3.40
2024-02-16T21:57:08.893Z,3.40
2024-02-16T22:00:02.692Z,3.40
2024-02-16T22:02:58.928Z,3.30
2024-02-16T22:05:53.218Z,3.30
2024-02-16T22:08:47.083Z,3.30
2024-02-16T22:11:41.656Z,3.20
2024-02-16T22:14:35.244Z,3.20
2024-02-16T22:17:29.067Z,3.20
2024-02-16T22:20:23.784Z,3.10
2024-02-16T22:23:17.488Z,3.10
2024-02-16T22:26:12.501Z,3.06
2024-02-16T22:29:06.497Z,3.00
2024-02-16T22:32:11.486Z,3.00
2024-02-16T22:35:11.792Z,3.00
2024-02-16T22:38:05.234Z,2.90
2024-02-16T22:40:59.148Z,2.90
2024-02-16T22:43:53.732Z,2.90
2024-02-16T22:46:47.291Z,2.84
2024-02-16T22:49:40.908Z,2.80
2024-02-16T22:52:35.106Z,2.80
2024-02-16T22:55:29.224Z,2.80
2024-02-16T22:58:23.034Z,2.80
2024-02-16T23:01:17.049Z,2.78
2024-02-16T23:04:10.966Z,2.70
2024-02-16T23:07:06.475Z,2.70
2024-02-16T23:09:59.953Z,2.70
2024-02-16T23:12:53.853Z,2.70
2024-02-16T23:15:47.486Z,2.68
2024-02-16T23:18:43.876Z,2.66
2024-02-16T23:21:37.446Z,2.60
2024-02-16T23:24:30.977Z,2.60
2024-02-16T23:27:24.596Z,2.60
2024-02-16T23:30:20.107Z,2.60
2024-02-16T23:33:14.591Z,2.60
2024-02-16T23:36:09.387Z,2.60
2024-02-16T23:39:02.914Z,2.60
2024-02-16T23:41:56.482Z,2.56
2024-02-16T23:44:49.870Z,2.50
2024-02-16T23:47:45.241Z,2.50
2024-02-16T23:50:39.072Z,2.50
2024-02-16T23:53:32.214Z,2.50
2024-02-16T23:56:28.463Z,2.50
2024-02-16T23:59:22.449Z,2.50
